Time;durP1;ratioP1;P1;durP2;ratioP2;P2;SDS_P1;SDS_P2;PMS_P1;PMS_P2;Temp;Humidity;BMP_temperature;BMP_pressure;BME280_temperature;BME280_humidity;BME280_pressure;Samples;Min_cycle;Max_cycle;Signal;HPM_P1;HPM_P2
2021/05/05 00:01:29;;;;;;;7.07;4.18;;;;;;;;;;5051768;28;20478;-67
2021/05/05 00:03:55;;;;;;;9.23;4.40;;;;;;;;;;5050922;28;20540;-67
2021/05/05 00:06:20;;;;;;;8.27;4.53;;;;;;;;;;5051821;28;20096;-68
2021/05/05 00:08:46;;;;;;;8.63;4.65;;;;;;;;;;5051988;28;20112;-67
2021/05/05 00:11:12;;;;;;;7.63;3.88;;;;;;;;;;5055059;28;20389;-68
2021/05/05 00:13:38;;;;;;;8.35;4.03;;;;;;;;;;5055827;28;20051;-68
2021/05/05 00:16:04;;;;;;;8.63;4.75;;;;;;;;;;5055801;28;20017;-68
2021/05/05 00:18:29;;;;;;;9.27;4.18;;;;;;;;;;5055430;28;20363;-68
2021/05/05 00:20:55;;;;;;;11.38;4.35;;;;;;;;;;5055689;28;20024;-68
2021/05/05 00:23:20;;;;;;;6.30;4.20;;;;;;;;;;5055165;28;20381;-67
2021/05/05 00:25:46;;;;;;;7.78;4.13;;;;;;;;;;5055393;28;20032;-67
2021/05/05 00:28:11;;;;;;;6.47;4.35;;;;;;;;;;5055021;28;20044;-68
2021/05/05 00:30:37;;;;;;;10.25;4.35;;;;;;;;;;5055475;28;20550;-68
2021/05/05 00:33:02;;;;;;;9.35;4.05;;;;;;;;;;5055145;28;20021;-68
2021/05/05 00:35:28;;;;;;;8.63;3.80;;;;;;;;;;5055283;28;20074;-67
2021/05/05 00:37:53;;;;;;;6.75;4.00;;;;;;;;;;5055273;28;20017;-68
2021/05/05 00:40:19;;;;;;;11.68;3.92;;;;;;;;;;5054493;28;20017;-68
2021/05/05 00:42:44;;;;;;;10.10;4.20;;;;;;;;;;5055322;28;20112;-67
2021/05/05 00:45:11;;;;;;;8.10;4.20;;;;;;;;;;5055064;28;20021;-68
2021/05/05 00:47:37;;;;;;;5.65;3.75;;;;;;;;;;5054891;28;20104;-67
2021/05/05 00:50:04;;;;;;;6.45;3.90;;;;;;;;;;5054957;28;20581;-68
2021/05/05 00:52:29;;;;;;;8.70;3.80;;;;;;;;;;5054803;28;20074;-68
2021/05/05 00:54:54;;;;;;;9.75;3.90;;;;;;;;;;5055050;28;20469;-68
2021/05/05 00:57:21;;;;;;;5.22;3.42;;;;;;;;;;5053221;28;20013;-68
2021/05/05 00:59:47;;;;;;;10.43;3.88;;;;;;;;;;5054746;28;20494;-68
2021/05/05 01:02:13;;;;;;;8.10;4.45;;;;;;;;;;5054539;28;20036;-67
2021/05/05 01:04:38;;;;;;;6.93;3.65;;;;;;;;;;5054522;28;20025;-68
2021/05/05 01:07:04;;;;;;;9.23;4.00;;;;;;;;;;5054670;28;20039;-68
2021/05/05 01:09:30;;;;;;;7.38;3.65;;;;;;;;;;5053904;28;20017;-68
2021/05/05 01:11:56;;;;;;;10.88;3.72;;;;;;;;;;5055114;28;20488;-67
2021/05/05 01:14:22;;;;;;;8.07;4.20;;;;;;;;;;5054298;28;20139;-68
2021/05/05 01:16:48;;;;;;;8.32;3.72;;;;;;;;;;5054414;28;20028;-68
2021/05/05 01:19:14;;;;;;;12.63;4.20;;;;;;;;;;5054076;28;20017;-67
2021/05/05 01:21:39;;;;;;;7.30;3.83;;;;;;;;;;5053978;28;20017;-67
2021/05/05 01:24:05;;;;;;;5.35;3.40;;;;;;;;;;5054266;28;20013;-68
2021/05/05 01:26:31;;;;;;;6.07;3.53;;;;;;;;;;5054018;28;20032;-67
2021/05/05 01:28:58;;;;;;;10.10;3.83;;;;;;;;;;5054142;28;20024;-67
2021/05/05 01:31:23;;;;;;;6.32;3.40;;;;;;;;;;5053801;28;20521;-68
2021/05/05 01:33:49;;;;;;;7.28;3.22;;;;;;;;;;5054005;28;20104;-68
2021/05/05 01:36:17;;;;;;;5.78;2.72;;;;;;;;;;5053972;28;20013;-68
2021/05/05 01:38:42;;;;;;;6.72;3.25;;;;;;;;;;5054130;28;20433;-68
2021/05/05 01:41:08;;;;;;;8.43;3.05;;;;;;;;;;5053277;28;20056;-68
2021/05/05 01:43:33;;;;;;;6.88;3.63;;;;;;;;;;5053939;28;20044;-68
2021/05/05 01:45:59;;;;;;;6.60;2.97;;;;;;;;;;5053927;28;20370;-69
2021/05/05 01:48:24;;;;;;;5.18;3.00;;;;;;;;;;5053432;28;20052;-68
2021/05/05 01:50:50;;;;;;;6.30;2.95;;;;;;;;;;5053940;28;20036;-68
2021/05/05 01:53:16;;;;;;;12.02;3.00;;;;;;;;;;5053523;28;20013;-68
2021/05/05 01:55:43;;;;;;;4.35;2.95;;;;;;;;;;5052488;28;20009;-68
2021/05/05 01:58:08;;;;;;;4.40;2.83;;;;;;;;;;5053628;28;20020;-68
2021/05/05 02:00:34;;;;;;;8.70;3.22;;;;;;;;;;5053640;28;20013;-68
2021/05/05 02:02:59;;;;;;;5.63;2.75;;;;;;;;;;5053395;28;20013;-68
2021/05/05 02:05:25;;;;;;;4.55;3.05;;;;;;;;;;5053272;28;20023;-67
2021/05/05 02:07:50;;;;;;;6.72;2.70;;;;;;;;;;5053298;28;20427;-67
2021/05/05 02:10:17;;;;;;;9.07;2.80;;;;;;;;;;5053037;28;20410;-68
2021/05/05 02:12:42;;;;;;;8.02;2.90;;;;;;;;;;5052398;28;20049;-68
2021/05/05 02:15:10;;;;;;;10.85;3.03;;;;;;;;;;5053440;28;20056;-68
2021/05/05 02:17:36;;;;;;;6.72;2.75;;;;;;;;;;5053355;28;20071;-67
2021/05/05 02:20:03;;;;;;;11.38;2.78;;;;;;;;;;5053615;28;20025;-67
2021/05/05 02:22:28;;;;;;;3.70;2.60;;;;;;;;;;5053332;28;20388;-68
2021/05/05 02:24:54;;;;;;;6.28;2.72;;;;;;;;;;5053236;28;20100;-68
2021/05/05 02:27:19;;;;;;;6.30;2.70;;;;;;;;;;5052702;28;20103;-68
2021/05/05 02:29:45;;;;;;;8.48;3.10;;;;;;;;;;5053167;28;20072;-68
2021/05/05 02:32:12;;;;;;;8.32;3.20;;;;;;;;;;5052241;28;20033;-68
2021/05/05 02:34:38;;;;;;;6.80;3.00;;;;;;;;;;5053195;28;20021;-68
2021/05/05 02:37:05;;;;;;;5.88;2.60;;;;;;;;;;5053163;28;20382;-67
2021/05/05 02:39:30;;;;;;;6.57;3.67;;;;;;;;;;5052040;28;20017;-67
2021/05/05 02:41:56;;;;;;;7.82;3.28;;;;;;;;;;5053243;28;20047;-68
2021/05/05 02:44:21;;;;;;;4.57;2.60;;;;;;;;;;5053062;28;20031;-67
2021/05/05 02:46:47;;;;;;;8.50;3.58;;;;;;;;;;5052611;28;20031;-68
2021/05/05 02:49:12;;;;;;;8.98;3.03;;;;;;;;;;5052587;28;20021;-67
2021/05/05 02:51:38;;;;;;;11.65;2.75;;;;;;;;;;5052811;28;20478;-67
2021/05/05 02:54:03;;;;;;;8.27;3.05;;;;;;;;;;5053001;28;20024;-67
2021/05/05 02:56:29;;;;;;;5.22;2.83;;;;;;;;;;5052653;28;20045;-67
2021/05/05 02:58:54;;;;;;;5.93;2.83;;;;;;;;;;5052885;28;20115;-67
2021/05/05 03:01:20;;;;;;;9.02;2.97;;;;;;;;;;5052438;28;20021;-67
2021/05/05 03:03:46;;;;;;;5.88;2.53;;;;;;;;;;5052520;28;20020;-68
2021/05/05 03:06:11;;;;;;;9.15;3.05;;;;;;;;;;5052529;28;20023;-67
2021/05/05 03:08:36;;;;;;;5.47;2.38;;;;;;;;;;5051199;28;20501;-68
2021/05/05 03:11:02;;;;;;;6.32;2.75;;;;;;;;;;5051884;28;20020;-67
2021/05/05 03:13:28;;;;;;;7.53;2.72;;;;;;;;;;5052348;28;20024;-67
2021/05/05 03:15:53;;;;;;;8.20;2.88;;;;;;;;;;5052494;28;20020;-67
2021/05/05 03:18:19;;;;;;;4.50;2.72;;;;;;;;;;5052239;28;20020;-67
2021/05/05 03:20:44;;;;;;;10.63;3.45;;;;;;;;;;5052654;28;20017;-67
2021/05/05 03:23:10;;;;;;;5.85;2.63;;;;;;;;;;5052476;28;20036;-68
2021/05/05 03:25:35;;;;;;;5.68;2.90;;;;;;;;;;5052087;28;20079;-67
2021/05/05 03:28:01;;;;;;;7.90;3.10;;;;;;;;;;5051908;28;20049;-67
2021/05/05 03:30:26;;;;;;;13.43;3.35;;;;;;;;;;5052453;28;20029;-67
2021/05/05 03:32:52;;;;;;;5.82;2.90;;;;;;;;;;5052104;28;20017;-68
2021/05/05 03:35:17;;;;;;;4.88;2.58;;;;;;;;;;5052081;28;20512;-67
2021/05/05 03:37:43;;;;;;;6.45;2.78;;;;;;;;;;5052194;28;20060;-68
2021/05/05 03:40:09;;;;;;;12.48;3.83;;;;;;;;;;5051622;28;20059;-68
2021/05/05 03:42:34;;;;;;;9.40;3.67;;;;;;;;;;5052113;28;20445;-67
2021/05/05 03:45:01;;;;;;;8.45;2.65;;;;;;;;;;5055887;28;20100;-68
2021/05/05 03:47:27;;;;;;;33.58;4.07;;;;;;;;;;5055804;28;20017;-68
2021/05/05 03:49:52;;;;;;;7.10;2.67;;;;;;;;;;5056137;28;20378;-69
2021/05/05 03:52:17;;;;;;;8.15;3.13;;;;;;;;;;5056139;28;20492;-68
2021/05/05 03:54:43;;;;;;;9.35;2.70;;;;;;;;;;5056368;28;20017;-68
2021/05/05 03:57:08;;;;;;;5.80;2.58;;;;;;;;;;5056005;28;20059;-68
2021/05/05 03:59:35;;;;;;;8.90;2.60;;;;;;;;;;5056038;28;20020;-69
2021/05/05 04:02:00;;;;;;;8.15;3.60;;;;;;;;;;5056177;28;20033;-68
2021/05/05 04:04:25;;;;;;;12.65;3.00;;;;;;;;;;5055849;28;20017;-68
2021/05/05 04:06:51;;;;;;;9.95;2.80;;;;;;;;;;5056002;28;20017;-69
2021/05/05 04:09:16;;;;;;;9.57;3.42;;;;;;;;;;5054990;28;20075;-69
2021/05/05 04:11:42;;;;;;;8.52;2.90;;;;;;;;;;5055735;28;20458;-68
2021/05/05 04:14:08;;;;;;;11.82;2.60;;;;;;;;;;5055786;28;20489;-69
2021/05/05 04:16:35;;;;;;;8.80;2.90;;;;;;;;;;5055543;28;20036;-68
2021/05/05 04:19:00;;;;;;;6.28;2.70;;;;;;;;;;5055729;28;20066;-68
2021/05/05 04:21:26;;;;;;;7.93;2.42;;;;;;;;;;5055670;28;20108;-68
2021/05/05 04:23:52;;;;;;;9.57;2.50;;;;;;;;;;5055601;28;20017;-68
2021/05/05 04:26:17;;;;;;;7.75;2.60;;;;;;;;;;5055552;28;20013;-69
2021/05/05 04:28:43;;;;;;;10.40;2.47;;;;;;;;;;5055189;28;20091;-69
2021/05/05 04:31:09;;;;;;;9.25;2.60;;;;;;;;;;5055326;28;20496;-68
2021/05/05 04:33:35;;;;;;;5.30;2.33;;;;;;;;;;5055048;28;20017;-68
2021/05/05 04:36:00;;;;;;;7.25;2.75;;;;;;;;;;5055446;28;20500;-68
2021/05/05 04:38:26;;;;;;;6.82;2.33;;;;;;;;;;5055393;28;20029;-68
2021/05/05 04:40:51;;;;;;;11.70;2.80;;;;;;;;;;5054577;28;20440;-68
2021/05/05 04:43:16;;;;;;;7.93;3.00;;;;;;;;;;5055005;28;20105;-68
2021/05/05 04:45:42;;;;;;;7.22;2.72;;;;;;;;;;5055392;28;20028;-68
2021/05/05 04:48:07;;;;;;;8.10;2.45;;;;;;;;;;5054868;28;20385;-68
2021/05/05 04:50:33;;;;;;;7.05;2.47;;;;;;;;;;5055211;28;20068;-68
2021/05/05 04:52:58;;;;;;;6.78;2.58;;;;;;;;;;5055302;28;20025;-68
2021/05/05 04:55:24;;;;;;;10.40;2.80;;;;;;;;;;5054006;28;20021;-68
2021/05/05 04:57:49;;;;;;;11.18;2.80;;;;;;;;;;5054800;28;20027;-68
2021/05/05 05:00:15;;;;;;;12.07;2.60;;;;;;;;;;5055125;28;20028;-68
2021/05/05 05:02:41;;;;;;;7.47;3.33;;;;;;;;;;5054771;28;20597;-68
2021/05/05 05:05:06;;;;;;;10.35;2.45;;;;;;;;;;5055210;28;20100;-68
2021/05/05 05:07:32;;;;;;;8.65;2.70;;;;;;;;;;5054447;28;20033;-68
2021/05/05 05:09:58;;;;;;;7.03;2.78;;;;;;;;;;5054094;28;20020;-68
2021/05/05 05:12:24;;;;;;;9.10;3.55;;;;;;;;;;5054851;28;20495;-68
2021/05/05 05:14:49;;;;;;;9.05;3.05;;;;;;;;;;5054678;28;20015;-68
2021/05/05 05:17:15;;;;;;;10.18;3.10;;;;;;;;;;5054343;28;20013;-68
2021/05/05 05:19:40;;;;;;;7.20;2.88;;;;;;;;;;5054911;28;20074;-69
2021/05/05 05:22:05;;;;;;;10.73;2.97;;;;;;;;;;5054758;28;20063;-68
2021/05/05 05:24:31;;;;;;;6.50;2.78;;;;;;;;;;5054640;28;20024;-68
2021/05/05 05:26:56;;;;;;;8.55;2.95;;;;;;;;;;5054273;28;20041;-68
2021/05/05 05:29:22;;;;;;;7.63;2.40;;;;;;;;;;5054275;28;20432;-68
2021/05/05 05:31:48;;;;;;;5.80;2.40;;;;;;;;;;5054619;28;20104;-68
2021/05/05 05:34:14;;;;;;;11.07;2.67;;;;;;;;;;5054178;28;20057;-68
2021/05/05 05:36:39;;;;;;;9.40;2.80;;;;;;;;;;5054423;28;20053;-68
2021/05/05 05:39:05;;;;;;;16.02;3.67;;;;;;;;;;5053728;28;20017;-68
2021/05/05 05:41:31;;;;;;;6.53;2.60;;;;;;;;;;5053800;28;20486;-68
2021/05/05 05:43:56;;;;;;;10.55;2.55;;;;;;;;;;5054176;28;20017;-68
2021/05/05 05:46:21;;;;;;;14.63;2.60;;;;;;;;;;5053986;28;20021;-68
2021/05/05 05:48:47;;;;;;;9.95;2.42;;;;;;;;;;5053814;28;20667;-68
2021/05/05 05:51:12;;;;;;;8.07;2.42;;;;;;;;;;5053716;28;20394;-68
2021/05/05 05:53:38;;;;;;;17.92;2.45;;;;;;;;;;5054121;28;20025;-69
2021/05/05 05:56:03;;;;;;;8.20;2.60;;;;;;;;;;5053993;28;20015;-69
2021/05/05 05:58:29;;;;;;;9.23;2.55;;;;;;;;;;5067492;28;20377;-72
2021/05/05 06:00:54;;;;;;;13.57;2.15;;;;;;;;;;5062236;28;20031;-70
2021/05/05 06:03:20;;;;;;;7.95;2.28;;;;;;;;;;5065500;28;20544;-70
2021/05/05 06:05:46;;;;;;;8.40;2.05;;;;;;;;;;5080976;28;20024;-71
2021/05/05 06:08:12;;;;;;;9.88;2.17;;;;;;;;;;5061169;28;20035;-72
2021/05/05 06:10:38;;;;;;;7.00;2.17;;;;;;;;;;5079860;28;20027;-70
2021/05/05 06:13:04;;;;;;;12.13;2.10;;;;;;;;;;5069018;28;20028;-71
2021/05/05 06:15:29;;;;;;;4.38;2.00;;;;;;;;;;5075529;28;20079;-69
2021/05/05 06:17:55;;;;;;;5.65;1.80;;;;;;;;;;5091706;28;20354;-70
2021/05/05 06:20:20;;;;;;;6.03;2.00;;;;;;;;;;5069648;28;20435;-71
2021/05/05 06:22:47;;;;;;;9.77;2.05;;;;;;;;;;5077707;28;20051;-70
2021/05/05 06:25:12;;;;;;;12.63;2.00;;;;;;;;;;5079694;28;20020;-69
2021/05/05 06:27:38;;;;;;;4.97;1.80;;;;;;;;;;5070882;28;20047;-68
2021/05/05 06:30:05;;;;;;;6.28;1.85;;;;;;;;;;5088276;28;20012;-73
2021/05/05 06:32:30;;;;;;;9.10;2.00;;;;;;;;;;5072867;28;20039;-73
2021/05/05 06:34:56;;;;;;;7.30;1.98;;;;;;;;;;5076629;28;20148;-74
2021/05/05 06:37:22;;;;;;;11.52;1.85;;;;;;;;;;5082632;28;20157;-73
2021/05/05 06:39:48;;;;;;;6.47;2.20;;;;;;;;;;5085090;28;20054;-71
2021/05/05 06:42:14;;;;;;;329.98;16.67;;;;;;;;;;5070769;28;20027;-73
2021/05/05 06:44:39;;;;;;;3.95;1.50;;;;;;;;;;5060930;28;20400;-69
2021/05/05 06:47:05;;;;;;;5.70;1.77;;;;;;;;;;5068135;28;20008;-76
2021/05/05 06:49:33;;;;;;;9.80;2.42;;;;;;;;;;5081161;28;20028;-71
2021/05/05 06:51:58;;;;;;;5.93;2.10;;;;;;;;;;5086586;28;20090;-75
2021/05/05 06:54:24;;;;;;;8.23;2.30;;;;;;;;;;5079914;28;20154;-74
2021/05/05 06:56:49;;;;;;;6.00;2.05;;;;;;;;;;5085110;28;20051;-77
2021/05/05 06:59:14;;;;;;;7.60;2.10;;;;;;;;;;5083622;28;20028;-81
2021/05/05 07:01:40;;;;;;;21.67;2.33;;;;;;;;;;5082163;28;20091;-78
2021/05/05 07:04:06;;;;;;;12.75;2.08;;;;;;;;;;5077177;28;20016;-75
2021/05/05 07:06:32;;;;;;;10.38;2.08;;;;;;;;;;5076178;28;20525;-72
2021/05/05 07:08:58;;;;;;;4.68;2.00;;;;;;;;;;5062806;28;20040;-74
2021/05/05 07:11:24;;;;;;;5.03;1.80;;;;;;;;;;5077243;28;20458;-73
2021/05/05 07:13:49;;;;;;;18.13;1.80;;;;;;;;;;5090399;28;20099;-72
2021/05/05 07:16:15;;;;;;;5.53;2.08;;;;;;;;;;5080315;28;20016;-72
2021/05/05 07:18:40;;;;;;;58.05;4.25;;;;;;;;;;5065403;28;20016;-77
2021/05/05 07:21:05;;;;;;;10.93;2.50;;;;;;;;;;5072016;28;20095;-76
2021/05/05 07:23:31;;;;;;;36.58;3.78;;;;;;;;;;5080026;28;20681;-76
2021/05/05 07:25:56;;;;;;;9.25;2.40;;;;;;;;;;5069028;28;20019;-75
2021/05/05 07:28:22;;;;;;;5.93;2.38;;;;;;;;;;5066040;28;20064;-77
2021/05/05 07:30:48;;;;;;;7.93;1.85;;;;;;;;;;5085814;28;20120;-80
2021/05/05 07:33:14;;;;;;;7.53;1.90;;;;;;;;;;5065166;28;20031;-77
2021/05/05 07:35:42;;;;;;;16.98;2.20;;;;;;;;;;5073043;28;20030;-79
2021/05/05 07:38:21;;;;;;;8.25;2.05;;;;;;;;;;5061626;28;20044;-76
2021/05/05 07:46:12;;;;;;;9.05;1.90;;;;;;;;;;5087792;28;20073;-76
2021/05/05 07:48:49;;;;;;;9.60;2.58;;;;;;;;;;5075167;28;20461;-75
2021/05/05 07:51:16;;;;;;;6.95;2.08;;;;;;;;;;5079457;28;20036;-74
2021/05/05 07:53:41;;;;;;;12.82;2.20;;;;;;;;;;5080933;28;20016;-76
2021/05/05 07:56:07;;;;;;;5.97;2.40;;;;;;;;;;5071160;28;20111;-73
2021/05/05 07:58:33;;;;;;;11.85;1.88;;;;;;;;;;5071784;28;20028;-77
2021/05/05 08:00:58;;;;;;;10.07;2.17;;;;;;;;;;5088885;28;20474;-76
2021/05/05 08:03:24;;;;;;;8.98;2.17;;;;;;;;;;5081263;28;20539;-75
2021/05/05 08:05:50;;;;;;;7.97;1.90;;;;;;;;;;5077075;28;20099;-77
2021/05/05 08:08:15;;;;;;;13.95;3.95;;;;;;;;;;5082516;28;20057;-69
2021/05/05 08:10:41;;;;;;;4.22;1.88;;;;;;;;;;5089525;28;20024;-73
2021/05/05 08:13:06;;;;;;;12.20;2.33;;;;;;;;;;5081464;28;20074;-71
2021/05/05 08:15:34;;;;;;;8.25;2.00;;;;;;;;;;5081592;28;20012;-71
2021/05/05 08:18:03;;;;;;;7.63;2.00;;;;;;;;;;5090099;28;20464;-71
2021/05/05 08:20:28;;;;;;;;;;;;;;;;;;5088932;28;20013;-69
2021/05/05 08:22:54;;;;;;;13.50;3.00;;;;;;;;;;5074591;28;19904;-70
2021/05/05 08:25:20;;;;;;;12.82;1.80;;;;;;;;;;5084927;28;20047;-70
2021/05/05 08:27:45;;;;;;;10.27;2.30;;;;;;;;;;5084841;28;20051;-71
2021/05/05 08:30:11;;;;;;;6.95;1.70;;;;;;;;;;5083825;28;20059;-72
2021/05/05 08:32:36;;;;;;;9.20;1.90;;;;;;;;;;5083922;28;20492;-71
2021/05/05 08:35:02;;;;;;;14.05;2.13;;;;;;;;;;5072591;28;20019;-72
2021/05/05 08:37:27;;;;;;;12.80;1.98;;;;;;;;;;5070989;28;20062;-71
2021/05/05 08:39:53;;;;;;;9.15;2.58;;;;;;;;;;5067939;28;20016;-67
2021/05/05 08:42:18;;;;;;;14.60;1.98;;;;;;;;;;5073374;28;20048;-73
2021/05/05 08:44:44;;;;;;;8.50;2.00;;;;;;;;;;5074864;28;20082;-72
2021/05/05 08:47:10;;;;;;;8.15;1.95;;;;;;;;;;5075453;28;20024;-76
2021/05/05 08:49:35;;;;;;;7.75;1.95;;;;;;;;;;5074944;28;20016;-76
2021/05/05 08:52:01;;;;;;;64.82;4.45;;;;;;;;;;5076248;28;20099;-76
2021/05/05 08:54:26;;;;;;;8.05;2.00;;;;;;;;;;5077743;28;20013;-71
2021/05/05 08:56:52;;;;;;;7.78;1.92;;;;;;;;;;5079583;28;20037;-75
2021/05/05 08:59:18;;;;;;;8.95;2.42;;;;;;;;;;5092031;28;20024;-76
2021/05/05 09:01:44;;;;;;;8.23;2.67;;;;;;;;;;5094274;28;20008;-69
2021/05/05 09:04:09;;;;;;;8.57;1.95;;;;;;;;;;5076894;28;20036;-70
2021/05/05 09:06:42;;;;;;;14.82;2.95;;;;;;;;;;5090393;28;20020;-70
2021/05/05 09:09:07;;;;;;;11.52;2.58;;;;;;;;;;5079383;28;20491;-69
2021/05/05 09:11:43;;;;;;;8.27;1.88;;;;;;;;;;5081951;28;20123;-67
2021/05/05 09:14:09;;;;;;;18.33;2.30;;;;;;;;;;5088852;28;20085;-67
2021/05/05 09:16:34;;;;;;;38.05;3.40;;;;;;;;;;5072038;28;20028;-68
2021/05/05 09:19:01;;;;;;;7.88;1.98;;;;;;;;;;5080663;28;20021;-69
2021/05/05 09:21:28;;;;;;;9.65;2.28;;;;;;;;;;5073841;28;20455;-65
2021/05/05 09:24:12;;;;;;;9.23;2.00;;;;;;;;;;5084125;28;20035;-67
2021/05/05 09:26:38;;;;;;;8.70;1.95;;;;;;;;;;5086913;28;20023;-67
2021/05/05 09:29:03;;;;;;;8.30;2.10;;;;;;;;;;5089110;28;20025;-73
2021/05/05 09:31:36;;;;;;;6.10;2.05;;;;;;;;;;5079431;28;20388;-72
2021/05/05 09:34:02;;;;;;;10.45;2.33;;;;;;;;;;5083005;28;20036;-73
2021/05/05 09:36:28;;;;;;;10.60;2.75;;;;;;;;;;5084906;28;20063;-74
2021/05/05 09:38:53;;;;;;;5.85;2.00;;;;;;;;;;5087852;28;20723;-72
2021/05/05 09:41:21;;;;;;;9.13;2.05;;;;;;;;;;5086180;28;20025;-72
2021/05/05 09:43:46;;;;;;;12.05;2.63;;;;;;;;;;5087499;28;20090;-74
2021/05/05 09:46:30;;;;;;;12.98;1.80;;;;;;;;;;5092496;28;20127;-72
2021/05/05 09:49:14;;;;;;;12.57;2.78;;;;;;;;;;5085152;28;20020;-74
2021/05/05 09:51:59;;;;;;;5.50;1.75;;;;;;;;;;5078797;28;20016;-73
2021/05/05 09:54:33;;;;;;;6.30;1.98;;;;;;;;;;5063374;28;20496;-72
2021/05/05 09:57:18;;;;;;;33.28;2.88;;;;;;;;;;5075395;28;20421;-73
2021/05/05 09:59:57;;;;;;;8.00;2.42;;;;;;;;;;5081040;28;20016;-73
2021/05/05 10:02:23;;;;;;;7.73;1.80;;;;;;;;;;5090144;28;20013;-71
2021/05/05 10:05:07;;;;;;;12.38;2.28;;;;;;;;;;5086142;28;20335;-73
2021/05/05 10:07:52;;;;;;;7.78;2.10;;;;;;;;;;5082603;28;20034;-72
2021/05/05 10:10:18;;;;;;;123.55;9.52;;;;;;;;;;5075100;28;20025;-73
2021/05/05 10:12:44;;;;;;;10.43;2.35;;;;;;;;;;5087677;28;20074;-69
2021/05/05 10:15:10;;;;;;;18.58;2.65;;;;;;;;;;5078416;28;20026;-68
2021/05/05 10:17:36;;;;;;;6.07;2.03;;;;;;;;;;5091911;28;20077;-68
2021/05/05 10:20:02;;;;;;;15.10;2.40;;;;;;;;;;5090466;28;20437;-68
2021/05/05 10:22:29;;;;;;;21.35;2.70;;;;;;;;;;5084675;28;20103;-66
2021/05/05 10:24:55;;;;;;;7.72;2.03;;;;;;;;;;5085249;28;20023;-65
2021/05/05 10:27:20;;;;;;;12.13;1.90;;;;;;;;;;5085140;28;20044;-65
2021/05/05 10:29:46;;;;;;;10.55;2.22;;;;;;;;;;5084173;28;20023;-68
2021/05/05 10:32:13;;;;;;;9.85;1.98;;;;;;;;;;5092656;28;20492;-73
2021/05/05 10:34:40;;;;;;;3.63;1.60;;;;;;;;;;5088604;28;20016;-72
2021/05/05 10:37:05;;;;;;;5.75;1.95;;;;;;;;;;5077780;28;20008;-72
2021/05/05 10:39:32;;;;;;;8.55;1.88;;;;;;;;;;5088635;28;20609;-70
2021/05/05 10:42:05;;;;;;;12.40;2.33;;;;;;;;;;5086284;28;20015;-70
2021/05/05 10:44:38;;;;;;;18.48;2.28;;;;;;;;;;5069910;28;20027;-72
2021/05/05 10:47:17;;;;;;;9.98;2.15;;;;;;;;;;5088191;28;20024;-71
2021/05/05 10:50:03;;;;;;;11.00;1.95;;;;;;;;;;5087942;28;20073;-68
2021/05/05 10:52:30;;;;;;;4.82;2.30;;;;;;;;;;5083027;28;20027;-68
2021/05/05 10:54:57;;;;;;;5.30;1.80;;;;;;;;;;5092076;28;20016;-69
2021/05/05 10:57:23;;;;;;;8.43;2.72;;;;;;;;;;5083632;28;20044;-69
2021/05/05 11:00:14;;;;;;;30.95;3.15;;;;;;;;;;5076364;28;20016;-69
2021/05/05 11:02:47;;;;;;;8.18;1.83;;;;;;;;;;5089040;28;20024;-70
2021/05/05 11:05:32;;;;;;;17.48;2.50;;;;;;;;;;5077393;28;20028;-71
2021/05/05 11:07:58;;;;;;;19.50;2.35;;;;;;;;;;5092541;28;20032;-70
2021/05/05 11:10:40;;;;;;;12.73;2.30;;;;;;;;;;5087624;28;20019;-70
2021/05/05 11:13:22;;;;;;;17.30;3.20;;;;;;;;;;5071328;28;20090;-70
2021/05/05 11:15:56;;;;;;;11.00;2.33;;;;;;;;;;5072077;28;20024;-70
2021/05/05 11:18:35;;;;;;;16.13;2.38;;;;;;;;;;5070728;28;20023;-69
2021/05/05 11:21:09;;;;;;;36.13;3.40;;;;;;;;;;5071264;28;20492;-69
2021/05/05 11:23:44;;;;;;;6.18;2.28;;;;;;;;;;5071501;28;20063;-69
2021/05/05 11:26:20;;;;;;;16.00;2.03;;;;;;;;;;5070115;28;20067;-68
2021/05/05 11:29:02;;;;;;;6.22;1.63;;;;;;;;;;5080261;28;20085;-69
2021/05/05 11:31:52;;;;;;;10.32;1.90;;;;;;;;;;5091415;28;20008;-69
2021/05/05 11:34:26;;;;;;;25.20;2.80;;;;;;;;;;5091301;28;20024;-71
2021/05/05 11:37:04;;;;;;;16.48;2.42;;;;;;;;;;5086238;28;20033;-68
2021/05/05 11:39:33;;;;;;;11.50;1.98;;;;;;;;;;5060982;28;20013;-67
2021/05/05 11:42:06;;;;;;;9.88;1.67;;;;;;;;;;5051170;28;20082;-68
2021/05/05 11:44:50;;;;;;;6.20;1.55;;;;;;;;;;5069580;28;20063;-68
2021/05/05 11:47:17;;;;;;;11.32;2.38;;;;;;;;;;5082928;28;20141;-72
2021/05/05 11:49:44;;;;;;;24.92;3.10;;;;;;;;;;5090333;28;20495;-71
2021/05/05 11:52:31;;;;;;;8.95;2.03;;;;;;;;;;5053418;28;20048;-72
2021/05/05 11:54:58;;;;;;;23.15;2.75;;;;;;;;;;5071903;28;20040;-68
2021/05/05 11:57:24;;;;;;;12.20;1.52;;;;;;;;;;5083493;28;20106;-67
2021/05/05 11:59:50;;;;;;;34.83;2.47;;;;;;;;;;5090910;28;20038;-66
2021/05/05 12:02:17;;;;;;;6.90;1.95;;;;;;;;;;5082836;28;20095;-66
2021/05/05 12:04:43;;;;;;;7.07;1.42;;;;;;;;;;5072465;28;20070;-68
2021/05/05 12:07:10;;;;;;;9.00;1.83;;;;;;;;;;5075107;28;20025;-66
2021/05/05 12:09:37;;;;;;;27.65;2.30;;;;;;;;;;5073384;28;20059;-67
2021/05/05 12:12:21;;;;;;;17.60;1.77;;;;;;;;;;5093203;28;20497;-67
2021/05/05 12:14:47;;;;;;;6.07;2.15;;;;;;;;;;5095427;28;20020;-65
2021/05/05 12:17:17;;;;;;;25.58;1.75;;;;;;;;;;5094803;28;20107;-66
2021/05/05 12:19:53;;;;;;;14.43;1.92;;;;;;;;;;5084778;28;20084;-70
2021/05/05 12:22:18;;;;;;;10.70;1.83;;;;;;;;;;5082063;28;20028;-70
2021/05/05 12:25:02;;;;;;;16.48;1.88;;;;;;;;;;5084793;28;20496;-73
2021/05/05 12:27:28;;;;;;;52.38;4.03;;;;;;;;;;5077637;28;20048;-73
2021/05/05 12:29:57;;;;;;;8.05;2.25;;;;;;;;;;5083108;28;20020;-71
2021/05/05 12:32:23;;;;;;;7.47;1.40;;;;;;;;;;5074985;28;20024;-68
2021/05/05 12:34:54;;;;;;;6.30;1.70;;;;;;;;;;5078382;28;20546;-69
2021/05/05 12:37:23;;;;;;;14.25;1.90;;;;;;;;;;5078311;28;20020;-68
2021/05/05 12:39:50;;;;;;;6.25;1.55;;;;;;;;;;5072805;28;20060;-71
2021/05/05 12:42:17;;;;;;;7.88;1.60;;;;;;;;;;5061108;28;20446;-67
2021/05/05 12:44:42;;;;;;;7.93;1.85;;;;;;;;;;5092848;28;20027;-67
2021/05/05 12:47:13;;;;;;;7.63;2.15;;;;;;;;;;5094112;28;20012;-67
2021/05/05 12:49:40;;;;;;;60.53;4.70;;;;;;;;;;5094945;28;20020;-68
2021/05/05 12:52:08;;;;;;;12.60;2.03;;;;;;;;;;5073757;28;20020;-67
2021/05/05 12:54:43;;;;;;;10.90;1.77;;;;;;;;;;5073783;28;20048;-67
2021/05/05 12:57:18;;;;;;;19.70;2.15;;;;;;;;;;5074477;28;20481;-67
2021/05/05 12:59:45;;;;;;;9.07;2.20;;;;;;;;;;5073663;28;20047;-62
2021/05/05 13:02:11;;;;;;;8.52;1.90;;;;;;;;;;5073288;28;20048;-63
2021/05/05 13:04:37;;;;;;;13.75;2.20;;;;;;;;;;5074135;28;20021;-63
2021/05/05 13:07:03;;;;;;;14.55;2.17;;;;;;;;;;5073873;28;20027;-69
2021/05/05 13:09:28;;;;;;;5.63;1.83;;;;;;;;;;5072691;28;20024;-70
2021/05/05 13:12:26;;;;;;;19.17;2.33;;;;;;;;;;5073278;28;20473;-73
2021/05/05 13:15:08;;;;;;;22.15;3.25;;;;;;;;;;5074021;28;20028;-64
2021/05/05 13:17:50;;;;;;;10.02;2.55;;;;;;;;;;5070547;28;20016;-63
2021/05/05 13:31:37;;;;;;;31.38;2.45;;;;;;;;;;5090239;28;20173;-65
2021/05/05 13:34:05;;;;;;;18.33;2.08;;;;;;;;;;5092636;28;20020;-66
2021/05/05 13:36:49;;;;;;;14.45;1.75;;;;;;;;;;5093752;28;20016;-66
2021/05/05 13:39:15;;;;;;;11.05;2.33;;;;;;;;;;5079577;28;20031;-66
2021/05/05 13:41:41;;;;;;;11.82;1.90;;;;;;;;;;5072617;28;20478;-65
2021/05/05 13:44:09;;;;;;;46.67;3.83;;;;;;;;;;5073248;28;20469;-65
2021/05/05 13:47:03;;;;;;;5.80;1.48;;;;;;;;;;5072655;28;20028;-65
2021/05/05 13:49:31;;;;;;;7.38;2.08;;;;;;;;;;5070473;28;20111;-64
2021/05/05 13:52:03;;;;;;;18.45;2.05;;;;;;;;;;5051802;28;20024;-65
2021/05/05 13:54:29;;;;;;;9.02;1.80;;;;;;;;;;5051135;28;20029;-65
2021/05/05 13:56:54;;;;;;;7.43;1.65;;;;;;;;;;5053146;28;20221;-65
2021/05/05 13:59:20;;;;;;;10.68;1.60;;;;;;;;;;5052862;28;20020;-65
2021/05/05 14:01:45;;;;;;;16.58;1.92;;;;;;;;;;5051566;28;20021;-66
2021/05/05 14:04:11;;;;;;;11.50;3.83;;;;;;;;;;5052107;28;20026;-65
2021/05/05 14:06:41;;;;;;;31.58;3.17;;;;;;;;;;5054015;28;20033;-65
2021/05/05 14:09:06;;;;;;;19.60;2.47;;;;;;;;;;5075800;28;20047;-65
2021/05/05 14:11:32;;;;;;;12.40;1.80;;;;;;;;;;5085758;28;20405;-65
2021/05/05 14:13:58;;;;;;;10.55;1.70;;;;;;;;;;5071986;28;20017;-66
2021/05/05 14:16:23;;;;;;;9.32;1.77;;;;;;;;;;5071662;28;20025;-66
2021/05/05 14:18:49;;;;;;;8.23;1.85;;;;;;;;;;5066689;28;20103;-67
2021/05/05 14:21:18;;;;;;;13.23;2.42;;;;;;;;;;5056452;28;20700;-68
2021/05/05 14:23:44;;;;;;;4.15;1.55;;;;;;;;;;5058709;28;20036;-65
2021/05/05 14:26:09;;;;;;;7.05;1.75;;;;;;;;;;5054297;28;20025;-67
2021/05/05 14:28:39;;;;;;;10.43;1.58;;;;;;;;;;5067128;28;20059;-66
2021/05/05 14:31:04;;;;;;;16.58;2.60;;;;;;;;;;5074441;28;20031;-67
2021/05/05 14:33:30;;;;;;;17.00;2.08;;;;;;;;;;5056813;28;20029;-67
2021/05/05 14:35:55;;;;;;;16.23;2.28;;;;;;;;;;5092577;28;20012;-67
2021/05/05 14:38:22;;;;;;;23.67;2.60;;;;;;;;;;5093396;28;20052;-67
2021/05/05 14:40:49;;;;;;;11.98;1.67;;;;;;;;;;5092769;28;20019;-67
2021/05/05 14:45:58;;;;;;;10.38;2.60;;;;;;;;;;5093319;28;20024;-66
2021/05/05 14:48:27;;;;;;;8.23;2.20;;;;;;;;;;5091847;28;20046;-67
2021/05/05 14:50:55;;;;;;;7.20;1.67;;;;;;;;;;5093433;28;20035;-67
2021/05/05 14:53:22;;;;;;;5.82;1.70;;;;;;;;;;5093111;28;20027;-67
2021/05/05 14:55:49;;;;;;;4.35;1.60;;;;;;;;;;5091180;28;20016;-67
2021/05/05 14:58:20;;;;;;;4.10;1.63;;;;;;;;;;5092723;28;20023;-67
2021/05/05 15:00:46;;;;;;;9.18;1.88;;;;;;;;;;5092863;28;20015;-67